sensor_id;sensor_type;location;lat;lon;timestamp;P1;durP1;ratioP1;P2;durP2;ratioP2
69847;SDS011;57143;55.940;37.496;2023-03-14T00:01:21;3.60;;;0.50;;
69847;SDS011;57143;55.940;37.496;2023-03-14T00:03:48;7.90;;;0.70;;
69847;SDS011;57143;55.940;37.496;2023-03-14T00:06:16;4.40;;;0.82;;
69847;SDS011;57143;55.940;37.496;2023-03-14T00:08:45;3.10;;;0.60;;
69847;SDS011;57143;55.940;37.496;2023-03-14T00:11:14;4.93;;;0.73;;
69847;SDS011;57143;55.940;37.496;2023-03-14T00:13:43;3.33;;;0.75;;
69847;SDS011;57143;55.940;37.496;2023-03-14T00:16:12;5.43;;;0.90;;
69847;SDS011;57143;55.940;37.496;2023-03-14T00:18:40;5.88;;;0.85;;
69847;SDS011;57143;55.940;37.496;2023-03-14T00:21:07;4.20;;;0.93;;
69847;SDS011;57143;55.940;37.496;2023-03-14T00:23:37;3.55;;;0.80;;
69847;SDS011;57143;55.940;37.496;2023-03-14T00:26:07;3.67;;;0.75;;
69847;SDS011;57143;55.940;37.496;2023-03-14T00:28:36;4.13;;;0.82;;
69847;SDS011;57143;55.940;37.496;2023-03-14T00:31:04;3.97;;;0.95;;
69847;SDS011;57143;55.940;37.496;2023-03-14T00:33:32;7.23;;;0.70;;
69847;SDS011;57143;55.940;37.496;2023-03-14T00:36:00;5.25;;;0.60;;
69847;SDS011;57143;55.940;37.496;2023-03-14T00:38:29;5.43;;;0.85;;
69847;SDS011;57143;55.940;37.496;2023-03-14T00:40:58;4.20;;;0.75;;
69847;SDS011;57143;55.940;37.496;2023-03-14T00:43:26;4.00;;;0.93;;
69847;SDS011;57143;55.940;37.496;2023-03-14T00:45:53;3.53;;;0.70;;
69847;SDS011;57143;55.940;37.496;2023-03-14T00:48:20;4.93;;;1.10;;
69847;SDS011;57143;55.940;37.496;2023-03-14T00:50:48;4.15;;;0.88;;
69847;SDS011;57143;55.940;37.496;2023-03-14T00:53:15;7.03;;;1.00;;
69847;SDS011;57143;55.940;37.496;2023-03-14T00:55:43;4.15;;;0.88;;
69847;SDS011;57143;55.940;37.496;2023-03-14T00:58:11;3.60;;;0.70;;
69847;SDS011;57143;55.940;37.496;2023-03-14T01:00:40;4.95;;;0.55;;
69847;SDS011;57143;55.940;37.496;2023-03-14T01:03:08;4.95;;;0.93;;
69847;SDS011;57143;55.940;37.496;2023-03-14T01:05:36;3.70;;;1.00;;
69847;SDS011;57143;55.940;37.496;2023-03-14T01:08:04;3.45;;;0.55;;
69847;SDS011;57143;55.940;37.496;2023-03-14T01:10:32;5.93;;;1.23;;
69847;SDS011;57143;55.940;37.496;2023-03-14T01:13:00;4.57;;;0.98;;
69847;SDS011;57143;55.940;37.496;2023-03-14T01:15:27;5.10;;;0.88;;
69847;SDS011;57143;55.940;37.496;2023-03-14T01:17:55;6.63;;;1.65;;
69847;SDS011;57143;55.940;37.496;2023-03-14T01:20:22;3.60;;;0.70;;
69847;SDS011;57143;55.940;37.496;2023-03-14T01:22:49;3.83;;;0.80;;
69847;SDS011;57143;55.940;37.496;2023-03-14T01:25:17;5.05;;;1.35;;
69847;SDS011;57143;55.940;37.496;2023-03-14T01:27:44;9.90;;;1.17;;
69847;SDS011;57143;55.940;37.496;2023-03-14T01:30:12;5.38;;;1.00;;
69847;SDS011;57143;55.940;37.496;2023-03-14T01:32:39;7.53;;;1.60;;
69847;SDS011;57143;55.940;37.496;2023-03-14T01:35:08;5.57;;;1.43;;
69847;SDS011;57143;55.940;37.496;2023-03-14T01:37:35;4.85;;;1.23;;
69847;SDS011;57143;55.940;37.496;2023-03-14T01:40:03;5.80;;;1.63;;
69847;SDS011;57143;55.940;37.496;2023-03-14T01:42:31;6.70;;;1.73;;
69847;SDS011;57143;55.940;37.496;2023-03-14T01:44:59;7.22;;;1.90;;
69847;SDS011;57143;55.940;37.496;2023-03-14T01:47:29;6.17;;;2.17;;
69847;SDS011;57143;55.940;37.496;2023-03-14T01:49:56;7.18;;;1.73;;
69847;SDS011;57143;55.940;37.496;2023-03-14T01:52:29;6.22;;;2.00;;
69847;SDS011;57143;55.940;37.496;2023-03-14T01:55:02;5.85;;;1.80;;
69847;SDS011;57143;55.940;37.496;2023-03-14T01:57:32;6.88;;;1.70;;
69847;SDS011;57143;55.940;37.496;2023-03-14T02:00:04;6.47;;;1.77;;
69847;SDS011;57143;55.940;37.496;2023-03-14T02:02:36;7.30;;;2.22;;
69847;SDS011;57143;55.940;37.496;2023-03-14T02:05:06;5.28;;;1.65;;
69847;SDS011;57143;55.940;37.496;2023-03-14T02:07:35;6.43;;;1.58;;
69847;SDS011;57143;55.940;37.496;2023-03-14T02:10:08;6.13;;;1.40;;
69847;SDS011;57143;55.940;37.496;2023-03-14T02:12:38;7.03;;;1.27;;
69847;SDS011;57143;55.940;37.496;2023-03-14T02:15:06;6.15;;;1.40;;
69847;SDS011;57143;55.940;37.496;2023-03-14T02:17:34;9.77;;;2.17;;
69847;SDS011;57143;55.940;37.496;2023-03-14T02:20:06;6.57;;;1.60;;
69847;SDS011;57143;55.940;37.496;2023-03-14T02:22:42;5.38;;;1.58;;
69847;SDS011;57143;55.940;37.496;2023-03-14T02:25:12;6.33;;;1.37;;
69847;SDS011;57143;55.940;37.496;2023-03-14T02:27:45;9.13;;;2.03;;
69847;SDS011;57143;55.940;37.496;2023-03-14T02:30:15;6.05;;;1.70;;
69847;SDS011;57143;55.940;37.496;2023-03-14T02:32:45;5.80;;;1.95;;
69847;SDS011;57143;55.940;37.496;2023-03-14T02:35:18;9.13;;;2.58;;
69847;SDS011;57143;55.940;37.496;2023-03-14T02:37:48;7.83;;;2.37;;
69847;SDS011;57143;55.940;37.496;2023-03-14T02:40:19;7.63;;;2.20;;
69847;SDS011;57143;55.940;37.496;2023-03-14T02:42:48;4.28;;;0.90;;
69847;SDS011;57143;55.940;37.496;2023-03-14T02:45:35;11.93;;;1.90;;
69847;SDS011;57143;55.940;37.496;2023-03-14T02:48:07;6.03;;;1.70;;
69847;SDS011;57143;55.940;37.496;2023-03-14T02:50:39;8.73;;;1.83;;
69847;SDS011;57143;55.940;37.496;2023-03-14T02:53:07;5.95;;;1.27;;
69847;SDS011;57143;55.940;37.496;2023-03-14T02:55:34;5.57;;;1.73;;
69847;SDS011;57143;55.940;37.496;2023-03-14T02:58:03;9.68;;;2.90;;
69847;SDS011;57143;55.940;37.496;2023-03-14T03:00:30;7.93;;;2.50;;
69847;SDS011;57143;55.940;37.496;2023-03-14T03:02:58;5.13;;;1.13;;
69847;SDS011;57143;55.940;37.496;2023-03-14T03:05:26;5.28;;;1.50;;
69847;SDS011;57143;55.940;37.496;2023-03-14T03:07:53;6.90;;;1.92;;
69847;SDS011;57143;55.940;37.496;2023-03-14T03:10:22;6.60;;;2.30;;
69847;SDS011;57143;55.940;37.496;2023-03-14T03:12:49;7.57;;;2.10;;
69847;SDS011;57143;55.940;37.496;2023-03-14T03:15:18;6.33;;;2.03;;
69847;SDS011;57143;55.940;37.496;2023-03-14T03:17:45;10.05;;;2.08;;
69847;SDS011;57143;55.940;37.496;2023-03-14T03:20:12;6.93;;;2.00;;
69847;SDS011;57143;55.940;37.496;2023-03-14T03:22:39;7.00;;;1.98;;
69847;SDS011;57143;55.940;37.496;2023-03-14T03:25:07;6.68;;;1.98;;
69847;SDS011;57143;55.940;37.496;2023-03-14T03:27:35;5.83;;;1.70;;
69847;SDS011;57143;55.940;37.496;2023-03-14T03:30:04;6.90;;;1.92;;
69847;SDS011;57143;55.940;37.496;2023-03-14T03:32:33;7.22;;;1.95;;
69847;SDS011;57143;55.940;37.496;2023-03-14T03:35:01;7.78;;;2.83;;
69847;SDS011;57143;55.940;37.496;2023-03-14T03:37:29;5.32;;;1.60;;
69847;SDS011;57143;55.940;37.496;2023-03-14T03:39:57;6.93;;;1.70;;
69847;SDS011;57143;55.940;37.496;2023-03-14T03:42:24;7.35;;;2.33;;
69847;SDS011;57143;55.940;37.496;2023-03-14T03:44:52;8.05;;;2.38;;
69847;SDS011;57143;55.940;37.496;2023-03-14T03:47:20;6.05;;;1.83;;
69847;SDS011;57143;55.940;37.496;2023-03-14T03:49:48;7.18;;;2.05;;
69847;SDS011;57143;55.940;37.496;2023-03-14T03:52:15;7.43;;;2.77;;
69847;SDS011;57143;55.940;37.496;2023-03-14T03:54:43;6.88;;;2.28;;
69847;SDS011;57143;55.940;37.496;2023-03-14T03:57:10;7.57;;;2.58;;
69847;SDS011;57143;55.940;37.496;2023-03-14T03:59:37;6.68;;;2.28;;
69847;SDS011;57143;55.940;37.496;2023-03-14T04:02:05;7.50;;;2.15;;
69847;SDS011;57143;55.940;37.496;2023-03-14T04:04:32;6.47;;;1.90;;
69847;SDS011;57143;55.940;37.496;2023-03-14T04:07:01;7.20;;;1.98;;
69847;SDS011;57143;55.940;37.496;2023-03-14T04:09:29;7.50;;;2.50;;
69847;SDS011;57143;55.940;37.496;2023-03-14T04:11:56;8.07;;;2.35;;
69847;SDS011;57143;55.940;37.496;2023-03-14T04:14:23;6.35;;;2.00;;
69847;SDS011;57143;55.940;37.496;2023-03-14T04:16:50;6.60;;;2.13;;
69847;SDS011;57143;55.940;37.496;2023-03-14T04:19:17;9.98;;;2.58;;
69847;SDS011;57143;55.940;37.496;2023-03-14T04:21:44;7.38;;;2.33;;
69847;SDS011;57143;55.940;37.496;2023-03-14T04:24:13;7.68;;;2.88;;
69847;SDS011;57143;55.940;37.496;2023-03-14T04:26:41;11.60;;;2.83;;
69847;SDS011;57143;55.940;37.496;2023-03-14T04:29:08;7.37;;;2.37;;
69847;SDS011;57143;55.940;37.496;2023-03-14T04:31:35;8.35;;;3.00;;
69847;SDS011;57143;55.940;37.496;2023-03-14T04:34:03;7.25;;;2.75;;
69847;SDS011;57143;55.940;37.496;2023-03-14T04:36:30;9.80;;;2.92;;
69847;SDS011;57143;55.940;37.496;2023-03-14T04:38:57;10.80;;;2.60;;
69847;SDS011;57143;55.940;37.496;2023-03-14T04:41:25;8.60;;;2.50;;
69847;SDS011;57143;55.940;37.496;2023-03-14T04:43:52;8.63;;;2.88;;
69847;SDS011;57143;55.940;37.496;2023-03-14T04:46:20;9.32;;;2.75;;
69847;SDS011;57143;55.940;37.496;2023-03-14T04:48:47;8.45;;;2.90;;
69847;SDS011;57143;55.940;37.496;2023-03-14T04:51:14;7.15;;;2.75;;
69847;SDS011;57143;55.940;37.496;2023-03-14T04:53:41;6.73;;;1.87;;
69847;SDS011;57143;55.940;37.496;2023-03-14T04:56:08;7.95;;;2.88;;
69847;SDS011;57143;55.940;37.496;2023-03-14T04:58:39;6.57;;;2.50;;
69847;SDS011;57143;55.940;37.496;2023-03-14T05:01:06;6.72;;;2.40;;
69847;SDS011;57143;55.940;37.496;2023-03-14T05:03:33;10.05;;;3.78;;
69847;SDS011;57143;55.940;37.496;2023-03-14T05:06:03;10.10;;;2.97;;
69847;SDS011;57143;55.940;37.496;2023-03-14T05:08:31;6.88;;;2.67;;
69847;SDS011;57143;55.940;37.496;2023-03-14T05:10:58;7.05;;;3.10;;
69847;SDS011;57143;55.940;37.496;2023-03-14T05:13:25;7.88;;;3.13;;
69847;SDS011;57143;55.940;37.496;2023-03-14T05:16:02;11.27;;;2.97;;
69847;SDS011;57143;55.940;37.496;2023-03-14T05:18:30;7.40;;;2.57;;
69847;SDS011;57143;55.940;37.496;2023-03-14T05:20:57;7.20;;;2.58;;
69847;SDS011;57143;55.940;37.496;2023-03-14T05:23:24;6.85;;;2.38;;
69847;SDS011;57143;55.940;37.496;2023-03-14T05:25:52;8.02;;;2.10;;
69847;SDS011;57143;55.940;37.496;2023-03-14T05:28:19;8.40;;;2.97;;
69847;SDS011;57143;55.940;37.496;2023-03-14T05:30:46;6.97;;;2.27;;
69847;SDS011;57143;55.940;37.496;2023-03-14T05:33:15;9.40;;;3.47;;
69847;SDS011;57143;55.940;37.496;2023-03-14T05:35:42;7.97;;;2.95;;
69847;SDS011;57143;55.940;37.496;2023-03-14T05:38:09;10.02;;;2.55;;
69847;SDS011;57143;55.940;37.496;2023-03-14T05:40:36;8.35;;;2.83;;
69847;SDS011;57143;55.940;37.496;2023-03-14T05:43:04;8.30;;;3.33;;
69847;SDS011;57143;55.940;37.496;2023-03-14T05:45:33;10.10;;;3.63;;
69847;SDS011;57143;55.940;37.496;2023-03-14T05:48:00;6.85;;;2.30;;
69847;SDS011;57143;55.940;37.496;2023-03-14T05:50:29;7.20;;;2.38;;
69847;SDS011;57143;55.940;37.496;2023-03-14T05:52:56;7.22;;;2.47;;
69847;SDS011;57143;55.940;37.496;2023-03-14T05:55:23;7.70;;;1.93;;
69847;SDS011;57143;55.940;37.496;2023-03-14T05:57:52;5.95;;;2.17;;
69847;SDS011;57143;55.940;37.496;2023-03-14T06:00:20;7.00;;;1.60;;
69847;SDS011;57143;55.940;37.496;2023-03-14T06:02:48;5.97;;;1.92;;
69847;SDS011;57143;55.940;37.496;2023-03-14T06:05:15;5.97;;;2.10;;
69847;SDS011;57143;55.940;37.496;2023-03-14T06:07:44;9.80;;;2.40;;
69847;SDS011;57143;55.940;37.496;2023-03-14T06:10:11;7.82;;;1.98;;
69847;SDS011;57143;55.940;37.496;2023-03-14T06:12:38;5.80;;;2.20;;
69847;SDS011;57143;55.940;37.496;2023-03-14T06:15:06;8.48;;;2.28;;
69847;SDS011;57143;55.940;37.496;2023-03-14T06:17:34;6.53;;;1.83;;
69847;SDS011;57143;55.940;37.496;2023-03-14T06:20:01;6.57;;;2.10;;
69847;SDS011;57143;55.940;37.496;2023-03-14T06:22:28;6.85;;;2.35;;
69847;SDS011;57143;55.940;37.496;2023-03-14T06:24:57;6.25;;;1.98;;
69847;SDS011;57143;55.940;37.496;2023-03-14T06:27:24;5.45;;;1.95;;
69847;SDS011;57143;55.940;37.496;2023-03-14T06:29:51;6.90;;;2.10;;
69847;SDS011;57143;55.940;37.496;2023-03-14T06:32:18;5.70;;;1.73;;
69847;SDS011;57143;55.940;37.496;2023-03-14T06:34:45;5.05;;;1.48;;
69847;SDS011;57143;55.940;37.496;2023-03-14T06:37:13;6.35;;;1.77;;
69847;SDS011;57143;55.940;37.496;2023-03-14T06:39:40;5.70;;;1.60;;
69847;SDS011;57143;55.940;37.496;2023-03-14T06:42:10;7.07;;;2.45;;
69847;SDS011;57143;55.940;37.496;2023-03-14T06:44:38;6.77;;;1.70;;
69847;SDS011;57143;55.940;37.496;2023-03-14T06:47:05;6.63;;;1.92;;
69847;SDS011;57143;55.940;37.496;2023-03-14T06:49:32;6.63;;;1.60;;
69847;SDS011;57143;55.940;37.496;2023-03-14T06:51:59;7.63;;;1.98;;
69847;SDS011;57143;55.940;37.496;2023-03-14T06:54:26;6.78;;;2.20;;
69847;SDS011;57143;55.940;37.496;2023-03-14T06:56:54;5.00;;;1.53;;
69847;SDS011;57143;55.940;37.496;2023-03-14T06:59:22;6.65;;;1.77;;
69847;SDS011;57143;55.940;37.496;2023-03-14T07:01:49;6.38;;;2.03;;
69847;SDS011;57143;55.940;37.496;2023-03-14T07:04:17;7.60;;;2.00;;
69847;SDS011;57143;55.940;37.496;2023-03-14T07:06:44;5.80;;;2.10;;
69847;SDS011;57143;55.940;37.496;2023-03-14T07:09:13;7.87;;;2.30;;
69847;SDS011;57143;55.940;37.496;2023-03-14T07:11:42;6.78;;;2.00;;
69847;SDS011;57143;55.940;37.496;2023-03-14T07:14:09;7.75;;;2.50;;
69847;SDS011;57143;55.940;37.496;2023-03-14T07:16:38;12.85;;;2.42;;
69847;SDS011;57143;55.940;37.496;2023-03-14T07:19:05;8.52;;;1.67;;
69847;SDS011;57143;55.940;37.496;2023-03-14T07:21:32;7.73;;;2.17;;
69847;SDS011;57143;55.940;37.496;2023-03-14T07:24:00;5.82;;;1.90;;
69847;SDS011;57143;55.940;37.496;2023-03-14T07:26:27;6.82;;;2.22;;
69847;SDS011;57143;55.940;37.496;2023-03-14T07:28:54;7.93;;;2.30;;
69847;SDS011;57143;55.940;37.496;2023-03-14T07:31:21;7.63;;;2.25;;
69847;SDS011;57143;55.940;37.496;2023-03-14T07:33:50;7.70;;;2.17;;
69847;SDS011;57143;55.940;37.496;2023-03-14T07:36:17;6.75;;;1.15;;
69847;SDS011;57143;55.940;37.496;2023-03-14T07:38:45;7.78;;;2.38;;
69847;SDS011;57143;55.940;37.496;2023-03-14T07:41:12;8.35;;;2.10;;
69847;SDS011;57143;55.940;37.496;2023-03-14T07:43:39;7.10;;;2.10;;
69847;SDS011;57143;55.940;37.496;2023-03-14T07:46:07;5.90;;;2.20;;
69847;SDS011;57143;55.940;37.496;2023-03-14T07:48:34;9.13;;;1.92;;
69847;SDS011;57143;55.940;37.496;2023-03-14T07:51:03;6.82;;;1.50;;
69847;SDS011;57143;55.940;37.496;2023-03-14T07:53:30;7.53;;;2.47;;
69847;SDS011;57143;55.940;37.496;2023-03-14T07:55:57;7.30;;;1.98;;
69847;SDS011;57143;55.940;37.496;2023-03-14T07:58:25;8.63;;;2.27;;
69847;SDS011;57143;55.940;37.496;2023-03-14T08:00:52;7.03;;;1.80;;
69847;SDS011;57143;55.940;37.496;2023-03-14T08:03:20;7.70;;;1.90;;
69847;SDS011;57143;55.940;37.496;2023-03-14T08:05:47;6.97;;;1.80;;
69847;SDS011;57143;55.940;37.496;2023-03-14T08:08:17;7.38;;;2.42;;
69847;SDS011;57143;55.940;37.496;2023-03-14T08:10:44;6.97;;;2.03;;
69847;SDS011;57143;55.940;37.496;2023-03-14T08:13:12;5.38;;;1.60;;
69847;SDS011;57143;55.940;37.496;2023-03-14T08:15:40;11.57;;;2.67;;
69847;SDS011;57143;55.940;37.496;2023-03-14T08:18:07;8.60;;;2.38;;
69847;SDS011;57143;55.940;37.496;2023-03-14T08:20:35;9.10;;;2.00;;
69847;SDS011;57143;55.940;37.496;2023-03-14T08:23:02;7.90;;;2.17;;
69847;SDS011;57143;55.940;37.496;2023-03-14T08:25:31;9.02;;;2.40;;
69847;SDS011;57143;55.940;37.496;2023-03-14T08:27:58;8.02;;;2.22;;
69847;SDS011;57143;55.940;37.496;2023-03-14T08:30:25;6.90;;;1.85;;
69847;SDS011;57143;55.940;37.496;2023-03-14T08:32:52;7.78;;;2.53;;
69847;SDS011;57143;55.940;37.496;2023-03-14T08:35:19;9.13;;;1.87;;
69847;SDS011;57143;55.940;37.496;2023-03-14T08:37:47;5.22;;;1.48;;
69847;SDS011;57143;55.940;37.496;2023-03-14T08:40:14;7.78;;;2.03;;
69847;SDS011;57143;55.940;37.496;2023-03-14T08:42:43;9.63;;;2.50;;
69847;SDS011;57143;55.940;37.496;2023-03-14T08:45:11;7.15;;;1.65;;
69847;SDS011;57143;55.940;37.496;2023-03-14T08:47:41;6.33;;;1.67;;
69847;SDS011;57143;55.940;37.496;2023-03-14T08:50:09;6.32;;;1.67;;
69847;SDS011;57143;55.940;37.496;2023-03-14T08:52:37;8.23;;;2.22;;
69847;SDS011;57143;55.940;37.496;2023-03-14T08:55:07;8.25;;;2.22;;
69847;SDS011;57143;55.940;37.496;2023-03-14T08:57:34;7.15;;;2.10;;
69847;SDS011;57143;55.940;37.496;2023-03-14T09:00:04;6.87;;;2.03;;
69847;SDS011;57143;55.940;37.496;2023-03-14T09:02:36;8.48;;;2.20;;
69847;SDS011;57143;55.940;37.496;2023-03-14T09:05:03;7.82;;;2.30;;
69847;SDS011;57143;55.940;37.496;2023-03-14T09:07:31;4.22;;;1.15;;
69847;SDS011;57143;55.940;37.496;2023-03-14T09:09:58;6.93;;;2.20;;
69847;SDS011;57143;55.940;37.496;2023-03-14T09:12:25;9.37;;;2.20;;
69847;SDS011;57143;55.940;37.496;2023-03-14T09:14:53;6.95;;;1.98;;
69847;SDS011;57143;55.940;37.496;2023-03-14T09:17:21;8.20;;;1.73;;
69847;SDS011;57143;55.940;37.496;2023-03-14T09:19:50;7.13;;;2.35;;
69847;SDS011;57143;55.940;37.496;2023-03-14T09:22:18;7.93;;;2.28;;
69847;SDS011;57143;55.940;37.496;2023-03-14T09:24:45;7.87;;;2.50;;
69847;SDS011;57143;55.940;37.496;2023-03-14T09:27:13;10.27;;;2.22;;
69847;SDS011;57143;55.940;37.496;2023-03-14T09:29:40;8.80;;;2.55;;
69847;SDS011;57143;55.940;37.496;2023-03-14T09:32:07;7.07;;;1.88;;
69847;SDS011;57143;55.940;37.496;2023-03-14T09:34:35;7.38;;;2.42;;
69847;SDS011;57143;55.940;37.496;2023-03-14T09:37:02;6.40;;;2.40;;
69847;SDS011;57143;55.940;37.496;2023-03-14T09:39:30;6.40;;;1.67;;
69847;SDS011;57143;55.940;37.496;2023-03-14T09:41:57;6.97;;;2.22;;
69847;SDS011;57143;55.940;37.496;2023-03-14T09:44:29;8.27;;;2.38;;
69847;SDS011;57143;55.940;37.496;2023-03-14T09:47:00;7.57;;;1.80;;
69847;SDS011;57143;55.940;37.496;2023-03-14T09:49:30;7.53;;;2.03;;
69847;SDS011;57143;55.940;37.496;2023-03-14T09:52:00;10.63;;;2.70;;
69847;SDS011;57143;55.940;37.496;2023-03-14T09:54:31;6.88;;;2.00;;
69847;SDS011;57143;55.940;37.496;2023-03-14T09:57:01;8.13;;;2.05;;
69847;SDS011;57143;55.940;37.496;2023-03-14T09:59:29;9.00;;;2.58;;
69847;SDS011;57143;55.940;37.496;2023-03-14T10:01:58;7.20;;;1.70;;
69847;SDS011;57143;55.940;37.496;2023-03-14T10:04:27;7.20;;;1.92;;
69847;SDS011;57143;55.940;37.496;2023-03-14T10:06:55;4.97;;;1.70;;
69847;SDS011;57143;55.940;37.496;2023-03-14T10:09:24;8.40;;;2.28;;
69847;SDS011;57143;55.940;37.496;2023-03-14T10:11:52;7.03;;;2.15;;
69847;SDS011;57143;55.940;37.496;2023-03-14T10:14:32;6.83;;;1.60;;
69847;SDS011;57143;55.940;37.496;2023-03-14T10:17:07;5.93;;;2.05;;
69847;SDS011;57143;55.940;37.496;2023-03-14T10:19:36;7.15;;;2.30;;
69847;SDS011;57143;55.940;37.496;2023-03-14T10:22:04;6.93;;;1.75;;
69847;SDS011;57143;55.940;37.496;2023-03-14T10:24:34;7.70;;;2.00;;
69847;SDS011;57143;55.940;37.496;2023-03-14T10:27:02;7.27;;;1.70;;
69847;SDS011;57143;55.940;37.496;2023-03-14T10:29:31;7.03;;;2.28;;
69847;SDS011;57143;55.940;37.496;2023-03-14T10:32:00;6.85;;;2.63;;
69847;SDS011;57143;55.940;37.496;2023-03-14T10:34:29;7.07;;;2.35;;
69847;SDS011;57143;55.940;37.496;2023-03-14T10:36:58;6.50;;;2.22;;
69847;SDS011;57143;55.940;37.496;2023-03-14T10:39:40;8.33;;;2.20;;
69847;SDS011;57143;55.940;37.496;2023-03-14T10:42:16;8.10;;;2.13;;
69847;SDS011;57143;55.940;37.496;2023-03-14T10:44:48;6.93;;;2.17;;
69847;SDS011;57143;55.940;37.496;2023-03-14T10:47:22;7.68;;;1.90;;
69847;SDS011;57143;55.940;37.496;2023-03-14T10:49:51;10.10;;;3.08;;
69847;SDS011;57143;55.940;37.496;2023-03-14T10:52:19;5.47;;;1.80;;
69847;SDS011;57143;55.940;37.496;2023-03-14T10:54:53;6.55;;;1.98;;
69847;SDS011;57143;55.940;37.496;2023-03-14T10:57:23;6.90;;;2.42;;
69847;SDS011;57143;55.940;37.496;2023-03-14T10:59:51;5.57;;;1.77;;
69847;SDS011;57143;55.940;37.496;2023-03-14T11:02:24;10.30;;;2.20;;
69847;SDS011;57143;55.940;37.496;2023-03-14T11:05:04;6.97;;;2.17;;
69847;SDS011;57143;55.940;37.496;2023-03-14T11:07:42;7.43;;;2.30;;
69847;SDS011;57143;55.940;37.496;2023-03-14T11:10:14;10.50;;;2.10;;
69847;SDS011;57143;55.940;37.496;2023-03-14T11:12:51;8.20;;;2.65;;
69847;SDS011;57143;55.940;37.496;2023-03-14T11:15:29;9.68;;;2.72;;
69847;SDS011;57143;55.940;37.496;2023-03-14T11:18:13;8.93;;;2.57;;
69847;SDS011;57143;55.940;37.496;2023-03-14T11:20:52;7.95;;;2.60;;
69847;SDS011;57143;55.940;37.496;2023-03-14T11:23:27;7.20;;;2.20;;
69847;SDS011;57143;55.940;37.496;2023-03-14T11:26:01;7.85;;;2.60;;
69847;SDS011;57143;55.940;37.496;2023-03-14T11:28:40;9.32;;;2.45;;
69847;SDS011;57143;55.940;37.496;2023-03-14T11:31:14;10.37;;;2.87;;
69847;SDS011;57143;55.940;37.496;2023-03-14T11:33:48;8.85;;;2.88;;
69847;SDS011;57143;55.940;37.496;2023-03-14T11:36:24;8.30;;;2.88;;
69847;SDS011;57143;55.940;37.496;2023-03-14T11:38:56;7.65;;;2.75;;
69847;SDS011;57143;55.940;37.496;2023-03-14T11:41:27;6.68;;;2.15;;
69847;SDS011;57143;55.940;37.496;2023-03-14T11:44:02;10.83;;;2.27;;
69847;SDS011;57143;55.940;37.496;2023-03-14T11:46:38;10.27;;;1.88;;
69847;SDS011;57143;55.940;37.496;2023-03-14T11:49:11;7.63;;;2.42;;
69847;SDS011;57143;55.940;37.496;2023-03-14T11:51:46;9.57;;;2.20;;
69847;SDS011;57143;55.940;37.496;2023-03-14T11:54:16;8.43;;;2.47;;
69847;SDS011;57143;55.940;37.496;2023-03-14T11:56:54;5.90;;;1.83;;
69847;SDS011;57143;55.940;37.496;2023-03-14T11:59:25;7.63;;;2.95;;
69847;SDS011;57143;55.940;37.496;2023-03-14T12:01:58;6.45;;;1.83;;
69847;SDS011;57143;55.940;37.496;2023-03-14T12:04:41;7.85;;;2.42;;
69847;SDS011;57143;55.940;37.496;2023-03-14T12:07:16;7.15;;;1.88;;
69847;SDS011;57143;55.940;37.496;2023-03-14T12:09:46;8.20;;;2.50;;
69847;SDS011;57143;55.940;37.496;2023-03-14T12:12:17;7.93;;;2.30;;
69847;SDS011;57143;55.940;37.496;2023-03-14T12:14:46;9.48;;;2.85;;
69847;SDS011;57143;55.940;37.496;2023-03-14T12:17:21;6.60;;;2.03;;
69847;SDS011;57143;55.940;37.496;2023-03-14T12:22:43;9.73;;;2.80;;
69847;SDS011;57143;55.940;37.496;2023-03-14T12:25:16;7.35;;;2.63;;
69847;SDS011;57143;55.940;37.496;2023-03-14T12:30:44;7.68;;;2.50;;
69847;SDS011;57143;55.940;37.496;2023-03-14T12:33:21;7.53;;;2.85;;
69847;SDS011;57143;55.940;37.496;2023-03-14T12:36:00;5.60;;;2.17;;
69847;SDS011;57143;55.940;37.496;2023-03-14T12:38:41;8.15;;;1.80;;
69847;SDS011;57143;55.940;37.496;2023-03-14T12:41:16;6.93;;;2.63;;
69847;SDS011;57143;55.940;37.496;2023-03-14T12:43:47;7.53;;;2.50;;
69847;SDS011;57143;55.940;37.496;2023-03-14T12:46:19;7.15;;;1.95;;
69847;SDS011;57143;55.940;37.496;2023-03-14T12:48:48;7.43;;;2.37;;
69847;SDS011;57143;55.940;37.496;2023-03-14T12:51:17;7.10;;;2.35;;
69847;SDS011;57143;55.940;37.496;2023-03-14T12:53:52;8.05;;;2.47;;
69847;SDS011;57143;55.940;37.496;2023-03-14T12:56:39;10.23;;;2.15;;
69847;SDS011;57143;55.940;37.496;2023-03-14T13:02:09;6.60;;;2.27;;
69847;SDS011;57143;55.940;37.496;2023-03-14T13:04:46;6.88;;;2.20;;
69847;SDS011;57143;55.940;37.496;2023-03-14T13:07:28;7.18;;;2.65;;
69847;SDS011;57143;55.940;37.496;2023-03-14T13:10:05;11.18;;;2.80;;
69847;SDS011;57143;55.940;37.496;2023-03-14T13:12:47;6.55;;;1.90;;
69847;SDS011;57143;55.940;37.496;2023-03-14T13:15:22;5.90;;;2.07;;
69847;SDS011;57143;55.940;37.496;2023-03-14T13:17:54;6.15;;;2.08;;
69847;SDS011;57143;55.940;37.496;2023-03-14T13:20:28;6.68;;;2.22;;
69847;SDS011;57143;55.940;37.496;2023-03-14T13:22:58;6.07;;;1.88;;
69847;SDS011;57143;55.940;37.496;2023-03-14T13:25:28;7.05;;;2.55;;
69847;SDS011;57143;55.940;37.496;2023-03-14T13:27:56;9.50;;;2.27;;
69847;SDS011;57143;55.940;37.496;2023-03-14T13:30:26;6.97;;;2.35;;
69847;SDS011;57143;55.940;37.496;2023-03-14T13:32:54;7.20;;;2.55;;
69847;SDS011;57143;55.940;37.496;2023-03-14T13:35:23;9.30;;;2.22;;
69847;SDS011;57143;55.940;37.496;2023-03-14T13:37:56;6.47;;;2.38;;
69847;SDS011;57143;55.940;37.496;2023-03-14T13:40:26;6.30;;;1.63;;
69847;SDS011;57143;55.940;37.496;2023-03-14T13:43:03;8.52;;;2.20;;
69847;SDS011;57143;55.940;37.496;2023-03-14T13:45:44;6.35;;;2.15;;
69847;SDS011;57143;55.940;37.496;2023-03-14T13:48:15;7.15;;;2.70;;
69847;SDS011;57143;55.940;37.496;2023-03-14T13:50:49;5.60;;;2.10;;
69847;SDS011;57143;55.940;37.496;2023-03-14T13:53:18;7.53;;;2.07;;
69847;SDS011;57143;55.940;37.496;2023-03-14T13:55:45;7.95;;;2.10;;
69847;SDS011;57143;55.940;37.496;2023-03-14T13:58:13;7.55;;;2.40;;
69847;SDS011;57143;55.940;37.496;2023-03-14T14:00:55;6.22;;;1.63;;
69847;SDS011;57143;55.940;37.496;2023-03-14T14:03:24;7.22;;;1.77;;
69847;SDS011;57143;55.940;37.496;2023-03-14T14:05:54;5.83;;;1.87;;
69847;SDS011;57143;55.940;37.496;2023-03-14T14:08:22;9.80;;;1.85;;
69847;SDS011;57143;55.940;37.496;2023-03-14T14:10:50;8.90;;;1.83;;
69847;SDS011;57143;55.940;37.496;2023-03-14T14:13:23;6.15;;;1.77;;
69847;SDS011;57143;55.940;37.496;2023-03-14T14:15:52;5.85;;;1.83;;
69847;SDS011;57143;55.940;37.496;2023-03-14T14:18:22;7.53;;;2.33;;
69847;SDS011;57143;55.940;37.496;2023-03-14T14:20:53;6.63;;;1.70;;
69847;SDS011;57143;55.940;37.496;2023-03-14T14:23:21;8.10;;;2.10;;
69847;SDS011;57143;55.940;37.496;2023-03-14T14:25:53;7.90;;;2.50;;
69847;SDS011;57143;55.940;37.496;2023-03-14T14:28:23;10.65;;;2.42;;
69847;SDS011;57143;55.940;37.496;2023-03-14T14:30:59;8.07;;;2.10;;
69847;SDS011;57143;55.940;37.496;2023-03-14T14:33:37;7.68;;;1.98;;
69847;SDS011;57143;55.940;37.496;2023-03-14T14:36:12;6.60;;;2.10;;
69847;SDS011;57143;55.940;37.496;2023-03-14T14:38:49;8.20;;;2.00;;
69847;SDS011;57143;55.940;37.496;2023-03-14T14:41:17;6.60;;;2.20;;
69847;SDS011;57143;55.940;37.496;2023-03-14T14:43:45;6.80;;;1.83;;
69847;SDS011;57143;55.940;37.496;2023-03-14T14:46:15;6.72;;;1.95;;
69847;SDS011;57143;55.940;37.496;2023-03-14T14:48:47;6.57;;;2.80;;
69847;SDS011;57143;55.940;37.496;2023-03-14T14:51:24;7.85;;;2.40;;
69847;SDS011;57143;55.940;37.496;2023-03-14T14:54:09;7.00;;;2.22;;
69847;SDS011;57143;55.940;37.496;2023-03-14T14:56:39;7.17;;;1.87;;